Time;durP1;ratioP1;P1;durP2;ratioP2;P2;SDS_P1;SDS_P2;PMS_P1;PMS_P2;Temp;Humidity;BMP_temperature;BMP_pressure;BME280_temperature;BME280_humidity;BME280_pressure;Samples;Min_cycle;Max_cycle;Signal;HPM_P1;HPM_P2
2021/06/27 00:01:23;;;;;;;1.52;1.42;;;26.10;45.90;;;29.87;30.77;101653.81;5134175;28;20048;-53
2021/06/27 00:03:51;;;;;;;1.63;1.52;;;26.10;45.90;;;29.90;30.71;101658.94;5133452;28;20043;-49
2021/06/27 00:06:17;;;;;;;1.50;1.40;;;26.10;45.90;;;29.85;30.75;101653.06;5133895;28;20089;-53
2021/06/27 00:08:44;;;;;;;1.95;1.80;;;26.10;45.90;;;29.86;30.68;101653.94;5133751;28;20055;-48
2021/06/27 00:11:11;;;;;;;1.88;1.77;;;26.10;46.00;;;29.85;30.70;101652.22;5133526;28;20412;-55
2021/06/27 00:13:40;;;;;;;1.55;1.45;;;26.10;46.00;;;29.86;30.59;101653.94;5133423;28;20059;-48
2021/06/27 00:16:07;;;;;;;1.35;1.25;;;26.00;46.00;;;29.83;30.93;101657.75;5133460;28;20125;-52
2021/06/27 00:18:34;;;;;;;1.50;1.40;;;26.10;46.00;;;29.81;30.70;101648.94;5133373;28;20039;-49
2021/06/27 00:21:08;;;;;;;1.55;1.45;;;26.00;46.00;;;29.81;30.96;101661.59;5111589;28;20044;-51
2021/06/27 00:23:39;;;;;;;1.50;1.40;;;26.00;46.00;;;29.82;30.72;101655.19;5133412;28;20047;-49
2021/06/27 00:26:09;;;;;;;1.50;1.40;;;26.00;46.10;;;29.80;30.60;101649.09;5133699;28;20047;-49
2021/06/27 00:28:35;;;;;;;1.70;1.60;;;26.00;46.10;;;29.80;30.97;101643.69;5133847;28;20046;-49
2021/06/27 00:31:03;;;;;;;1.38;1.30;;;26.00;46.10;;;29.81;30.70;101656.19;5133372;28;20100;-53
2021/06/27 00:33:30;;;;;;;1.52;1.42;;;26.00;46.10;;;29.79;31.00;101650.06;5115290;28;20441;-53
2021/06/27 00:35:56;;;;;;;2.00;1.83;;;26.00;46.20;;;29.77;30.73;101649.31;5133501;28;20047;-52
2021/06/27 00:38:24;;;;;;;1.38;1.27;;;26.00;46.20;;;29.74;30.93;101639.69;5113389;28;20052;-51
2021/06/27 00:40:50;;;;;;;1.35;1.30;;;26.00;46.20;;;29.77;30.81;101641.22;5133210;28;20433;-47
2021/06/27 00:43:16;;;;;;;1.70;1.60;;;25.90;46.10;;;29.72;31.00;101650.59;5114772;28;20054;-52
2021/06/27 00:45:42;;;;;;;1.70;1.60;;;25.90;46.10;;;29.72;30.93;101655.97;5133237;28;20489;-51
2021/06/27 00:48:09;;;;;;;1.33;1.23;;;25.90;46.20;;;29.70;30.96;101643.59;5132978;28;20055;-53
2021/06/27 00:50:57;;;;;;;1.60;1.50;;;25.90;46.20;;;29.68;31.13;101649.13;5133308;28;20043;-53
2021/06/27 00:53:23;;;;;;;1.60;1.50;;;25.90;46.20;;;29.70;31.05;101655.25;5114767;28;20047;-52
2021/06/27 00:55:57;;;;;;;1.58;1.48;;;25.90;46.30;;;29.70;31.13;101649.00;5133008;28;20058;-51
2021/06/27 00:58:26;;;;;;;2.50;1.67;;;25.90;46.30;;;29.69;30.83;101650.00;5133259;28;20058;-50
2021/06/27 01:00:52;;;;;;;1.50;1.40;;;25.90;46.30;;;29.67;31.08;101644.75;5132886;28;20115;-53
2021/06/27 01:03:18;;;;;;;1.48;1.38;;;25.90;46.30;;;29.65;31.08;101641.31;5134618;27;20043;-53
2021/06/27 01:05:44;;;;;;;1.30;1.20;;;25.90;46.30;;;29.65;31.13;101637.75;5136387;28;20096;-51
2021/06/27 01:08:10;;;;;;;1.83;1.73;;;25.90;46.40;;;29.64;31.04;101647.69;5136682;28;20043;-51
2021/06/27 01:10:37;;;;;;;1.60;1.50;;;25.80;46.30;;;29.63;31.07;101639.75;5136327;28;20141;-53
2021/06/27 01:13:04;;;;;;;1.52;1.42;;;25.80;46.30;;;29.61;31.09;101641.72;5136433;28;20055;-55
2021/06/27 01:15:30;;;;;;;1.80;1.70;;;25.80;46.30;;;29.61;31.12;101633.66;5136061;28;20058;-55
2021/06/27 01:17:57;;;;;;;1.70;1.60;;;25.80;46.30;;;29.60;31.18;101637.31;5136162;28;20071;-48
2021/06/27 01:20:29;;;;;;;1.70;1.60;;;25.80;46.90;;;29.56;31.11;101629.50;5117794;28;20046;-51
2021/06/27 01:22:57;;;;;;;1.40;1.30;;;25.80;46.40;;;29.55;31.02;101627.81;5136495;28;20079;-48
2021/06/27 01:25:26;;;;;;;1.80;1.70;;;25.80;46.40;;;29.53;30.93;101629.75;5115069;28;20081;-50
2021/06/27 01:27:54;;;;;;;1.60;1.50;;;25.80;46.40;;;29.51;30.97;101626.34;5136278;28;20051;-51
2021/06/27 01:30:21;;;;;;;1.70;1.60;;;25.80;46.40;;;29.54;31.23;101631.47;5136036;28;20047;-54
2021/06/27 01:32:51;;;;;;;1.77;1.67;;;25.80;46.50;;;29.51;31.22;101629.03;5136223;28;20051;-53
2021/06/27 01:35:20;;;;;;;1.70;1.60;;;25.80;46.50;;;29.52;30.99;101640.66;5136276;28;20070;-54
2021/06/27 01:37:48;;;;;;;1.85;1.75;;;25.80;46.50;;;29.48;31.15;101637.38;5135948;28;20055;-52
2021/06/27 01:40:17;;;;;;;1.73;1.63;;;25.80;46.60;;;29.50;31.28;101635.44;5117377;28;20043;-51
2021/06/27 01:42:44;;;;;;;1.70;1.60;;;25.80;46.60;;;29.51;31.22;101636.28;5135821;28;20083;-53
2021/06/27 01:45:23;;;;;;;1.67;1.58;;;25.70;46.50;;;29.48;31.10;101633.84;5136188;28;20469;-51
2021/06/27 01:48:04;;;;;;;1.73;1.63;;;25.70;46.60;;;29.47;31.10;101643.78;5136085;28;20051;-50
2021/06/27 01:50:31;;;;;;;1.70;1.60;;;25.70;46.60;;;29.48;31.30;101637.38;5136012;28;20541;-53
2021/06/27 01:52:58;;;;;;;1.58;1.48;;;25.70;46.60;;;29.43;31.27;101636.94;5136028;28;20077;-53
2021/06/27 01:55:25;;;;;;;1.80;1.70;;;25.70;46.60;;;29.45;31.34;101631.41;5135225;28;20558;-51
2021/06/27 01:57:52;;;;;;;1.58;1.48;;;25.70;46.60;;;29.45;31.12;101634.97;5135592;28;20047;-52
2021/06/27 02:00:19;;;;;;;1.75;1.65;;;25.70;46.60;;;29.43;31.18;101636.09;5135554;28;20051;-52
2021/06/27 02:02:45;;;;;;;1.65;1.55;;;25.70;47.20;;;29.44;31.44;101630.56;5135479;28;20432;-52
2021/06/27 02:05:12;;;;;;;1.85;1.75;;;25.70;46.70;;;29.43;31.43;101636.09;5135525;28;20055;-54
2021/06/27 02:07:39;;;;;;;1.70;1.60;;;25.60;46.60;;;29.40;31.15;101631.81;5135413;28;20039;-48
2021/06/27 02:10:17;;;;;;;1.50;1.40;;;25.60;46.70;;;29.38;31.29;101625.69;5135391;28;20059;-50
2021/06/27 02:12:43;;;;;;;1.60;1.50;;;25.60;46.70;;;29.40;31.46;101620.19;5135190;28;20039;-51
2021/06/27 02:15:11;;;;;;;1.42;1.33;;;25.60;46.70;;;29.37;31.26;101624.88;5134968;27;20043;-53
2021/06/27 02:17:38;;;;;;;1.58;1.48;;;25.60;46.70;;;29.40;31.44;101620.19;5135158;28;20063;-52
2021/06/27 02:20:06;;;;;;;1.20;1.20;;;25.60;46.80;;;29.35;31.20;101612.50;5135274;28;20043;-52
2021/06/27 02:22:32;;;;;;;1.63;1.52;;;25.60;46.80;;;29.34;31.37;101611.66;5135227;28;20054;-52
2021/06/27 02:24:58;;;;;;;1.75;1.65;;;25.60;46.90;;;29.36;31.43;101612.38;5135393;28;20395;-48
2021/06/27 02:27:24;;;;;;;1.60;1.50;;;25.60;46.80;;;29.35;31.44;101610.69;5135059;28;20051;-51
2021/06/27 02:29:49;;;;;;;1.35;1.25;;;25.60;46.80;;;29.34;31.43;101610.81;5135255;28;20058;-52
2021/06/27 02:32:15;;;;;;;1.80;1.70;;;25.50;46.80;;;29.32;31.29;101615.44;5135274;28;20126;-52
2021/06/27 02:34:42;;;;;;;1.30;1.20;;;25.60;46.80;;;29.31;31.34;101608.38;5135018;28;20484;-47
2021/06/27 02:37:09;;;;;;;1.77;1.67;;;25.60;46.90;;;29.31;31.35;101605.69;5135092;28;20180;-54
2021/06/27 02:39:38;;;;;;;1.52;1.42;;;25.50;46.80;;;29.29;31.74;101610.34;5135196;28;20054;-53
2021/06/27 02:42:07;;;;;;;1.48;1.38;;;25.50;46.80;;;29.27;31.55;101599.72;5134879;28;20057;-52
2021/06/27 02:44:33;;;;;;;1.63;1.52;;;25.60;46.90;;;29.31;31.53;101603.84;5134981;28;20043;-51
2021/06/27 02:46:59;;;;;;;1.63;1.52;;;25.50;46.80;;;29.29;31.39;101605.81;5134994;28;20054;-51
2021/06/27 02:49:24;;;;;;;1.52;1.42;;;25.50;46.90;;;29.30;31.73;101603.97;5135242;28;20108;-50
2021/06/27 02:51:50;;;;;;;1.70;1.60;;;25.50;46.90;;;29.29;31.40;101605.81;5134607;28;20055;-53
2021/06/27 02:54:16;;;;;;;1.65;1.55;;;25.50;46.90;;;29.26;31.58;101602.53;5134507;28;20130;-52
2021/06/27 02:56:42;;;;;;;1.85;1.75;;;25.50;46.90;;;29.25;31.72;101601.66;5134801;28;21277;-48
2021/06/27 02:59:07;;;;;;;1.60;1.50;;;25.50;46.90;;;29.22;31.78;101601.06;5134504;28;20116;-51
2021/06/27 03:01:33;;;;;;;1.75;1.65;;;25.50;46.90;;;29.26;31.73;101608.75;5130339;28;20047;-50
2021/06/27 03:03:59;;;;;;;1.73;1.63;;;25.50;46.90;;;29.25;31.47;101612.44;5134908;28;20404;-47
2021/06/27 03:06:25;;;;;;;1.70;1.60;;;25.50;46.90;;;29.25;31.71;101608.91;5134864;28;20396;-46
2021/06/27 03:08:50;;;;;;;1.63;1.52;;;25.50;46.90;;;29.24;31.70;101605.34;5134257;28;20412;-51
2021/06/27 03:11:17;;;;;;;1.75;1.65;;;25.50;46.90;;;29.24;31.52;101610.75;5134341;28;20128;-48
2021/06/27 03:13:43;;;;;;;1.48;1.38;;;25.50;46.90;;;29.23;31.40;101606.31;5134281;28;20062;-47
2021/06/27 03:16:10;;;;;;;1.60;1.50;;;25.50;46.90;;;29.22;31.85;101598.38;5134686;28;20503;-47
2021/06/27 03:18:37;;;;;;;1.58;1.48;;;25.50;46.90;;;29.23;31.82;101611.72;5134227;28;20496;-48
2021/06/27 03:21:03;;;;;;;1.90;1.80;;;25.50;47.50;;;29.23;31.50;101611.72;5134580;28;20135;-48
2021/06/27 03:23:30;;;;;;;1.48;1.38;;;25.50;46.90;;;29.23;31.73;101616.25;5134107;28;20058;-52
2021/06/27 03:25:56;;;;;;;1.60;1.50;;;25.50;47.00;;;29.22;31.80;101607.34;5133737;27;20047;-46
2021/06/27 03:28:22;;;;;;;1.70;1.60;;;25.50;46.90;;;29.21;31.44;101613.69;5131472;28;20039;-48
2021/06/27 03:30:49;;;;;;;1.60;1.50;;;25.50;47.00;;;29.23;31.60;101602.78;5134050;28;20055;-50
2021/06/27 03:33:15;;;;;;;1.75;1.65;;;25.50;46.90;;;29.23;31.50;101608.19;5134295;28;20105;-46
2021/06/27 03:35:41;;;;;;;1.55;1.45;;;25.50;46.90;;;29.22;31.59;101607.34;5134016;28;20496;-53
2021/06/27 03:38:21;;;;;;;1.55;1.45;;;25.50;47.00;;;29.23;31.49;101605.50;5134100;28;20046;-50
2021/06/27 03:40:47;;;;;;;1.70;1.60;;;25.50;46.90;;;29.24;31.38;101602.66;5134342;28;20046;-47
2021/06/27 03:43:13;;;;;;;1.77;1.67;;;25.50;46.90;;;29.23;31.80;101600.09;5113281;28;20078;-48
2021/06/27 03:45:39;;;;;;;1.80;1.70;;;25.50;46.90;;;29.18;31.76;101587.03;5133845;28;20043;-49
2021/06/27 03:48:06;;;;;;;1.73;1.63;;;25.50;46.90;;;29.21;31.38;101597.53;5133758;28;20066;-51
2021/06/27 03:50:32;;;;;;;1.58;1.48;;;25.50;46.90;;;29.23;31.47;101608.19;5134104;28;20080;-52
2021/06/27 03:52:57;;;;;;;1.70;1.60;;;25.50;46.90;;;29.22;31.60;101604.63;5134049;28;20126;-50
2021/06/27 03:55:23;;;;;;;1.70;1.60;;;25.50;46.90;;;29.20;31.59;101598.50;5133959;28;20055;-50
2021/06/27 03:57:49;;;;;;;1.63;1.52;;;25.50;46.90;;;29.22;31.49;101606.47;5133803;28;20123;-50
2021/06/27 04:00:17;;;;;;;1.80;1.70;;;25.50;46.90;;;29.19;31.82;101599.50;5133785;28;20051;-50
2021/06/27 04:02:43;;;;;;;1.65;1.55;;;25.50;46.90;;;29.15;31.56;101600.72;5133742;28;20043;-50
2021/06/27 04:05:11;;;;;;;1.70;1.60;;;25.50;46.90;;;29.21;31.53;101610.16;5133551;28;20039;-54
2021/06/27 04:07:37;;;;;;;1.65;1.55;;;25.50;46.90;;;29.21;31.52;101618.25;5115042;28;20104;-49
2021/06/27 04:10:03;;;;;;;1.95;1.70;;;25.50;46.90;;;29.17;31.69;101609.56;5115560;28;20047;-50
2021/06/27 04:12:29;;;;;;;1.70;1.60;;;25.50;46.90;;;29.17;31.65;101605.03;5114916;28;20075;-53
2021/06/27 04:14:55;;;;;;;1.52;1.42;;;25.50;46.90;;;29.22;31.49;101618.09;5133431;28;20046;-52
2021/06/27 04:17:22;;;;;;;1.90;1.80;;;25.50;46.90;;;29.18;31.45;101612.09;5096869;28;20096;-48
2021/06/27 04:19:49;;;;;;;1.77;1.67;;;25.50;46.90;;;29.21;31.57;101616.38;5115619;28;20047;-53
2021/06/27 04:22:15;;;;;;;1.67;1.58;;;25.50;46.90;;;29.17;31.50;101609.56;5133504;28;20039;-47
2021/06/27 04:24:42;;;;;;;1.52;1.42;;;25.50;46.90;;;29.18;31.73;101614.78;5133398;28;20138;-52
2021/06/27 04:27:09;;;;;;;1.63;1.52;;;25.50;46.90;;;29.22;31.40;101620.81;5133601;28;20508;-51
2021/06/27 04:29:35;;;;;;;1.63;1.52;;;25.50;46.90;;;29.23;31.77;101613.56;5133265;28;20051;-50
2021/06/27 04:32:01;;;;;;;1.65;1.55;;;25.50;46.90;;;29.20;31.71;101611.97;5132422;28;20119;-50
2021/06/27 04:34:27;;;;;;;1.60;1.50;;;25.50;46.80;;;29.21;31.43;101611.00;5133486;28;20488;-48
2021/06/27 04:36:53;;;;;;;1.40;1.30;;;25.50;46.80;;;29.21;31.57;101605.63;5132890;28;20516;-48
2021/06/27 04:39:18;;;;;;;1.58;1.48;;;25.50;46.80;;;29.20;31.72;101593.13;5114521;28;20561;-49
2021/06/27 04:41:44;;;;;;;1.75;1.65;;;25.50;46.80;;;29.24;31.54;101609.91;5136703;28;20062;-48
2021/06/27 04:44:12;;;;;;;1.80;1.70;;;25.50;46.80;;;29.21;31.42;101600.22;5136644;28;20442;-51
2021/06/27 04:46:40;;;;;;;1.80;1.70;;;25.60;46.80;;;29.18;31.82;101595.09;5136659;28;20051;-52
2021/06/27 04:49:08;;;;;;;1.70;1.60;;;25.50;46.80;;;29.23;31.45;101602.78;5136583;28;20397;-49
2021/06/27 04:51:35;;;;;;;1.67;1.58;;;25.60;46.80;;;29.24;31.50;101604.50;5136615;28;20126;-49
2021/06/27 04:54:02;;;;;;;1.55;1.45;;;25.50;46.80;;;29.23;31.80;101598.25;5136686;28;20057;-51
2021/06/27 04:56:27;;;;;;;1.85;1.75;;;25.60;46.80;;;29.27;31.51;101601.53;5136882;28;20100;-51
2021/06/27 04:58:53;;;;;;;1.70;1.60;;;25.50;46.70;;;29.29;31.60;101602.28;5137177;28;20047;-53
2021/06/27 05:01:19;;;;;;;1.48;1.38;;;25.60;46.70;;;29.29;31.49;101604.97;5136446;28;20053;-54
2021/06/27 05:03:45;;;;;;;1.48;1.38;;;25.60;46.70;;;29.27;31.59;101601.53;5136752;28;20057;-52
2021/06/27 05:06:10;;;;;;;1.73;1.63;;;25.60;46.70;;;29.29;31.56;101605.81;5115748;28;20044;-49
2021/06/27 05:08:36;;;;;;;1.60;1.48;;;25.60;46.70;;;29.33;31.46;101606.41;5136469;28;20104;-48
2021/06/27 05:11:02;;;;;;;1.60;1.50;;;25.60;46.60;;;29.31;31.58;101601.13;5136232;28;20059;-47
2021/06/27 05:13:28;;;;;;;1.50;1.40;;;25.60;46.60;;;29.35;31.32;101601.72;5136194;28;20054;-52
2021/06/27 05:15:54;;;;;;;1.75;1.65;;;25.70;46.60;;;29.38;31.33;101602.31;5136313;28;20404;-50
2021/06/27 05:18:20;;;;;;;1.80;1.70;;;25.70;46.60;;;29.41;31.25;101609.28;5117811;28;20055;-49
2021/06/27 05:20:47;;;;;;;1.60;1.50;;;25.70;46.50;;;29.42;31.16;101610.13;5118224;28;20053;-47
2021/06/27 05:23:14;;;;;;;1.65;1.55;;;25.70;46.50;;;29.41;31.43;101597.66;5136182;28;20059;-51
2021/06/27 05:25:40;;;;;;;1.35;1.25;;;25.70;46.50;;;29.44;31.45;101600.94;5136230;28;20373;-51
2021/06/27 05:28:05;;;;;;;1.80;1.70;;;25.80;46.50;;;29.43;31.13;101591.13;5136016;28;20065;-53
2021/06/27 05:30:31;;;;;;;1.55;1.45;;;25.70;46.40;;;29.45;31.29;101602.63;5136048;28;20050;-48
2021/06/27 05:32:57;;;;;;;1.45;1.35;;;25.80;46.50;;;29.44;31.17;101595.56;5136041;28;20130;-51
2021/06/27 05:35:23;;;;;;;1.73;1.63;;;25.70;46.40;;;29.49;31.25;101608.63;5135832;28;20062;-47
2021/06/27 05:37:49;;;;;;;1.60;1.50;;;25.80;46.40;;;29.47;31.15;101600.69;5135985;28;20047;-46
2021/06/27 05:40:14;;;;;;;1.50;1.40;;;25.70;46.40;;;29.49;30.99;101606.78;5135910;28;20070;-52
2021/06/27 05:42:40;;;;;;;1.65;1.55;;;25.70;46.30;;;29.48;30.94;101607.75;5113695;28;20044;-51
2021/06/27 05:45:07;;;;;;;1.60;1.50;;;25.80;46.40;;;29.48;31.18;101615.84;5135720;28;20042;-48
2021/06/27 05:47:33;;;;;;;1.67;1.58;;;25.70;46.30;;;29.48;31.28;101615.00;5135836;28;20057;-47
2021/06/27 05:49:59;;;;;;;1.60;1.50;;;25.70;46.30;;;29.47;31.40;101610.56;5134978;27;20039;-48
2021/06/27 05:52:25;;;;;;;1.80;1.70;;;25.80;46.40;;;29.51;31.17;101620.13;5135509;28;20051;-50
2021/06/27 05:54:50;;;;;;;1.85;1.75;;;25.80;46.40;;;29.52;31.05;101611.03;5135591;28;20622;-47
2021/06/27 05:57:16;;;;;;;1.80;1.70;;;25.80;46.40;;;29.53;31.23;101607.34;5135844;28;20078;-50
2021/06/27 05:59:44;;;;;;;1.50;1.40;;;25.80;46.30;;;29.56;31.21;101610.63;5136142;28;20051;-49
2021/06/27 06:02:09;;;;;;;1.75;1.65;;;25.90;46.40;;;29.61;31.11;101604.84;5117136;28;20108;-48
2021/06/27 06:04:36;;;;;;;1.80;1.70;;;25.90;46.40;;;29.71;30.83;101615.69;5135539;28;20043;-51
2021/06/27 06:07:02;;;;;;;1.60;1.50;;;26.00;46.20;;;29.74;30.70;101608.16;5117542;28;20380;-50
2021/06/27 06:09:27;;;;;;;1.67;1.58;;;26.00;46.10;;;29.82;30.94;101603.97;5135533;28;20072;-51
2021/06/27 06:11:53;;;;;;;1.58;1.48;;;26.00;45.90;;;29.86;30.70;101600.03;5135127;28;20069;-51
2021/06/27 06:14:19;;;;;;;1.77;1.67;;;26.10;45.90;;;29.95;30.82;101603.75;5135352;28;20118;-51
2021/06/27 06:16:45;;;;;;;1.70;1.60;;;26.20;45.80;;;30.02;30.65;101599.50;5135075;28;20114;-46
2021/06/27 06:19:18;;;;;;;1.77;1.67;;;26.30;45.70;;;30.11;30.38;101599.53;5135535;28;20043;-48
2021/06/27 06:21:45;;;;;;;1.67;1.58;;;26.30;45.50;;;30.11;30.38;101599.53;5135313;28;20043;-48
2021/06/27 06:24:11;;;;;;;1.80;1.70;;;26.40;45.30;;;30.28;30.07;101595.31;5135237;28;20499;-49
2021/06/27 06:26:37;;;;;;;1.70;1.60;;;26.50;45.80;;;30.40;30.03;101603.31;5135197;28;20047;-45
2021/06/27 06:29:04;;;;;;;1.60;1.50;;;26.60;45.10;;;30.47;30.01;101605.31;5135052;28;20050;-51
2021/06/27 06:31:30;;;;;;;1.60;1.50;;;26.60;45.00;;;30.53;29.77;101593.09;5133774;28;20058;-49
2021/06/27 06:33:56;;;;;;;1.67;1.58;;;26.70;45.00;;;30.58;29.78;101598.09;5135035;28;20047;-53
2021/06/27 06:36:21;;;;;;;1.65;1.55;;;26.70;44.80;;;30.66;29.78;101609.88;5134958;28;20161;-46
2021/06/27 06:38:47;;;;;;;1.70;1.60;;;26.80;44.70;;;30.75;29.64;101615.41;5135079;28;20039;-51
2021/06/27 06:41:13;;;;;;;1.33;1.23;;;26.90;44.70;;;30.79;29.54;101617.69;5135187;28;20085;-46
2021/06/27 06:43:39;;;;;;;1.50;1.40;;;26.90;44.60;;;30.84;29.48;101611.88;5135091;28;20087;-51
2021/06/27 06:46:04;;;;;;;1.45;1.35;;;27.00;45.10;;;30.91;29.51;101614.84;5116170;28;20404;-52
2021/06/27 06:48:30;;;;;;;1.23;1.23;;;27.00;44.40;;;30.97;29.39;101612.47;5134702;28;20511;-51
2021/06/27 06:50:56;;;;;;;1.50;1.40;;;27.10;44.40;;;31.03;29.16;101613.72;5114953;28;20477;-46
2021/06/27 06:53:22;;;;;;;1.70;1.60;;;27.10;44.20;;;31.07;29.16;101608.88;5134727;28;20057;-47
2021/06/27 06:55:47;;;;;;;1.70;1.45;;;27.20;44.20;;;31.12;29.15;101612.00;5135278;28;20050;-47
2021/06/27 06:58:13;;;;;;;1.73;1.63;;;27.30;44.10;;;31.20;29.06;101609.44;5134667;28;20054;-46
2021/06/27 07:00:39;;;;;;;1.42;1.33;;;27.30;44.00;;;31.25;28.90;101611.72;5134425;27;20080;-47
2021/06/27 07:03:05;;;;;;;1.63;1.52;;;27.30;44.00;;;31.25;28.78;101606.31;5134482;28;20051;-45
2021/06/27 07:05:30;;;;;;;1.40;1.30;;;27.30;43.90;;;31.28;28.93;101606.03;5134485;28;20049;-48
2021/06/27 07:07:56;;;;;;;1.40;1.30;;;27.30;44.40;;;31.30;28.79;101610.25;5116525;28;20042;-51
2021/06/27 07:10:22;;;;;;;1.52;1.42;;;27.30;43.80;;;31.32;28.74;101602.84;5134403;28;20130;-48
2021/06/27 07:12:48;;;;;;;1.40;1.30;;;27.40;43.80;;;31.39;28.72;101603.13;5134236;28;20132;-48
2021/06/27 07:15:15;;;;;;;1.63;1.52;;;27.40;43.70;;;31.45;28.55;101607.09;5134171;28;20058;-48
2021/06/27 07:17:42;;;;;;;1.55;1.45;;;27.50;43.70;;;31.49;28.70;101597.69;5134384;28;20564;-48
2021/06/27 07:20:10;;;;;;;1.30;1.20;;;27.50;43.60;;;31.51;28.49;101601.16;5134385;28;20043;-52
2021/06/27 07:22:36;;;;;;;1.40;1.30;;;27.60;43.60;;;31.53;28.61;101600.00;5134192;28;20453;-48
2021/06/27 07:25:04;;;;;;;1.30;1.30;;;27.60;43.50;;;31.57;28.65;101608.66;5134247;28;20059;-54
2021/06/27 07:27:30;;;;;;;1.42;1.33;;;27.60;43.50;;;31.60;28.44;101594.00;5134016;28;20083;-50
2021/06/27 07:29:56;;;;;;;1.63;1.52;;;27.60;43.40;;;31.60;28.29;101588.59;5134180;28;20082;-52
2021/06/27 07:32:22;;;;;;;1.20;1.20;;;27.70;43.40;;;31.66;28.44;101590.69;5134051;28;20485;-51
2021/06/27 07:34:48;;;;;;;1.15;1.10;;;27.70;43.30;;;31.69;28.54;101588.56;5134397;28;20047;-52
2021/06/27 07:37:13;;;;;;;1.50;1.40;;;27.80;43.30;;;31.77;28.38;101593.22;5133844;28;20039;-51
2021/06/27 07:39:40;;;;;;;1.38;1.30;;;27.80;43.20;;;31.82;28.07;101590.06;5115510;28;20039;-53
2021/06/27 07:42:09;;;;;;;1.35;1.25;;;27.90;43.10;;;31.87;28.22;101595.88;5134232;28;20141;-52
2021/06/27 07:44:34;;;;;;;1.40;1.30;;;27.90;43.00;;;31.90;28.07;101590.16;5133938;28;20138;-50
2021/06/27 07:47:00;;;;;;;1.60;1.50;;;27.90;42.90;;;31.95;27.90;101602.22;5114610;28;20051;-49
2021/06/27 07:49:26;;;;;;;1.30;1.20;;;27.90;42.80;;;31.96;28.07;101592.28;5133773;28;20050;-51
2021/06/27 07:51:52;;;;;;;1.45;1.35;;;28.00;42.90;;;32.03;27.92;101606.06;5133453;28;20063;-50
2021/06/27 07:54:17;;;;;;;1.27;1.20;;;28.00;42.80;;;32.06;28.06;101603.91;5115536;28;20544;-50
2021/06/27 07:56:43;;;;;;;1.10;1.10;;;28.10;42.80;;;32.11;27.74;101603.44;5134003;28;20511;-50
2021/06/27 07:59:09;;;;;;;1.50;1.40;;;28.10;42.70;;;32.12;27.64;101605.16;5133567;28;20516;-47
2021/06/27 08:01:35;;;;;;;1.65;1.55;;;28.10;42.70;;;32.10;27.70;101580.97;5134050;28;20163;-52
2021/06/27 08:04:01;;;;;;;1.50;1.40;;;28.10;42.70;;;32.15;27.64;101596.75;5134202;28;20043;-51
2021/06/27 08:06:27;;;;;;;1.48;1.38;;;28.10;42.60;;;32.18;27.65;101598.28;5133805;28;20104;-53
2021/06/27 08:08:53;;;;;;;1.02;1.02;;;28.20;42.60;;;32.20;27.88;101591.72;5133456;27;20504;-50
2021/06/27 08:11:18;;;;;;;1.17;1.10;;;28.20;42.60;;;32.22;27.52;101594.28;5112531;28;20051;-51
2021/06/27 08:13:44;;;;;;;1.40;1.30;;;28.20;42.50;;;32.24;27.45;101593.09;5132821;27;20051;-49
2021/06/27 08:16:10;;;;;;;1.45;1.35;;;28.20;42.50;;;32.21;27.77;101585.31;5134044;28;20047;-53
2021/06/27 08:18:36;;;;;;;1.45;1.35;;;28.20;42.50;;;32.22;27.62;101586.16;5133698;28;20485;-50
2021/06/27 08:21:02;;;;;;;1.60;1.50;;;28.30;42.50;;;32.21;27.39;101588.03;5133378;28;20092;-48
2021/06/27 08:23:28;;;;;;;1.42;1.33;;;28.30;42.50;;;32.22;27.62;101587.00;5133329;28;20047;-50
2021/06/27 08:25:53;;;;;;;1.50;1.40;;;28.30;42.50;;;32.24;27.63;101595.81;5133713;28;20051;-52
2021/06/27 08:28:19;;;;;;;1.35;1.25;;;28.30;42.40;;;32.24;27.37;101592.25;5133233;28;20050;-50
2021/06/27 08:30:45;;;;;;;1.40;1.30;;;28.30;42.50;;;32.25;27.69;101591.28;5133188;28;20047;-50
2021/06/27 08:33:11;;;;;;;1.30;1.25;;;28.30;42.80;;;32.26;27.41;101587.53;5133398;28;20055;-50
2021/06/27 08:35:36;;;;;;;1.30;1.20;;;28.30;42.40;;;32.27;27.39;101579.28;5133242;28;20086;-53
2021/06/27 08:38:03;;;;;;;1.40;1.30;;;28.40;42.40;;;32.31;27.60;101579.81;5133222;28;20447;-51
2021/06/27 08:40:29;;;;;;;1.42;1.33;;;28.40;42.30;;;32.34;27.37;101573.25;5114785;28;20499;-53
2021/06/27 08:42:54;;;;;;;1.42;1.33;;;28.40;42.20;;;32.33;27.34;101575.13;5133187;28;20055;-54
2021/06/27 08:45:23;;;;;;;1.50;1.40;;;28.50;42.20;;;32.37;27.57;101575.66;5133221;28;20402;-47
2021/06/27 08:47:53;;;;;;;1.25;1.15;;;28.50;42.10;;;32.39;27.46;101576.34;5133597;28;20055;-52
2021/06/27 08:50:20;;;;;;;1.50;1.40;;;28.50;42.00;;;32.43;27.18;101572.34;5129968;28;20051;-51
2021/06/27 08:52:46;;;;;;;1.58;1.48;;;28.50;41.90;;;32.42;27.55;101579.59;5132979;28;20047;-49
2021/06/27 08:55:14;;;;;;;1.30;1.20;;;28.60;41.90;;;32.41;27.55;101577.91;5133019;28;20054;-49
2021/06/27 08:57:42;;;;;;;1.50;1.40;;;28.60;41.90;;;32.42;27.41;101579.59;5132877;28;20050;-53
2021/06/27 09:00:09;;;;;;;1.42;1.33;;;28.60;41.90;;;32.42;27.08;101576.91;5133041;28;20059;-52
2021/06/27 09:02:35;;;;;;;1.00;1.00;;;28.60;41.80;;;32.43;27.25;101572.34;5132780;28;20051;-50
2021/06/27 09:05:01;;;;;;;1.33;1.25;;;28.60;41.80;;;32.42;27.57;101571.47;5133393;28;20077;-51
2021/06/27 09:07:32;;;;;;;1.50;1.40;;;28.60;41.80;;;32.42;27.18;101566.06;5132991;28;20074;-50
2021/06/27 09:10:10;;;;;;;1.25;1.20;;;28.60;41.80;;;32.41;27.51;101560.81;5132902;28;20047;-52
2021/06/27 09:12:50;;;;;;;1.38;1.27;;;28.60;41.80;;;32.38;27.38;101561.97;5114385;28;20047;-52
2021/06/27 09:15:41;;;;;;;1.45;1.35;;;28.60;41.80;;;32.40;27.42;101564.53;5132779;28;20047;-52
2021/06/27 09:18:25;;;;;;;1.33;1.23;;;28.60;41.80;;;32.36;27.35;101561.28;5132865;28;20078;-50
2021/06/27 09:20:57;;;;;;;1.50;1.40;;;28.70;41.80;;;32.36;27.27;101558.59;5132771;28;20039;-49
2021/06/27 09:23:42;;;;;;;1.20;1.20;;;28.70;41.90;;;32.37;27.38;101564.84;5133020;28;20070;-48
2021/06/27 09:26:08;;;;;;;1.15;1.10;;;28.60;41.80;;;32.38;27.12;101564.69;5135514;28;20522;-52
2021/06/27 09:28:49;;;;;;;1.40;1.30;;;28.60;41.70;;;32.35;27.55;101556.88;5117428;28;20131;-51
2021/06/27 09:31:42;;;;;;;1.63;1.52;;;28.70;41.80;;;32.38;27.34;101556.56;5136112;28;20051;-52
2021/06/27 09:34:13;;;;;;;1.10;1.00;;;28.70;41.80;;;32.37;27.05;101560.28;5115681;28;20489;-50
2021/06/27 09:36:46;;;;;;;1.48;1.38;;;28.70;41.70;;;32.39;27.57;101557.41;5135930;28;20083;-54
2021/06/27 09:39:15;;;;;;;1.40;1.30;;;28.70;41.70;;;32.40;27.45;101551.00;5117683;28;20137;-52
2021/06/27 09:41:54;;;;;;;1.40;1.30;;;28.70;41.70;;;32.37;27.45;101548.59;5135823;28;20047;-54
2021/06/27 09:44:21;;;;;;;1.50;1.40;;;28.70;41.60;;;32.38;27.12;101545.75;5117697;28;20054;-49
2021/06/27 09:46:51;;;;;;;1.30;1.20;;;28.70;41.60;;;32.38;27.27;101545.75;5135695;28;20058;-51
2021/06/27 09:49:29;;;;;;;1.15;1.15;;;28.70;41.70;;;32.38;27.34;101551.16;5116648;28;20427;-47
2021/06/27 09:52:12;;;;;;;1.80;1.70;;;28.70;41.70;;;32.39;27.15;101555.53;5135536;28;20070;-48
2021/06/27 09:54:38;;;;;;;1.60;1.50;;;28.70;41.60;;;32.37;27.47;101557.56;5136315;28;20077;-53
2021/06/27 09:57:07;;;;;;;1.45;1.35;;;28.70;41.60;;;32.39;27.28;101566.38;5116727;28;20043;-51
2021/06/27 09:59:35;;;;;;;1.80;1.70;;;28.70;41.60;;;32.38;27.13;101558.41;5115939;28;20055;-47
2021/06/27 10:02:05;;;;;;;1.00;1.00;;;28.70;41.60;;;32.39;27.09;101560.97;5135680;28;20047;-46
2021/06/27 10:04:36;;;;;;;1.30;1.20;;;28.70;41.60;;;32.39;27.45;101557.41;5136090;28;20125;-53
2021/06/27 10:07:09;;;;;;;1.42;1.33;;;28.70;41.60;;;32.39;27.44;101560.97;5135107;28;20040;-51
2021/06/27 10:09:42;;;;;;;1.05;1.05;;;28.80;41.60;;;32.35;27.20;101556.88;5135539;28;20555;-51
2021/06/27 10:12:18;;;;;;;1.48;1.38;;;28.80;41.60;;;32.38;27.42;101556.56;5135388;28;20051;-50
2021/06/27 10:14:51;;;;;;;1.33;1.23;;;28.80;41.60;;;32.40;27.14;101565.38;5116997;28;20101;-51